createdAt,value
2023-01-22T00:02:55.287Z,1.40
2023-01-22T00:05:57.066Z,1.40
2023-01-22T00:09:03.639Z,1.30
2023-01-22T00:12:05.669Z,1.30
2023-01-22T00:15:07.947Z,1.40
2023-01-22T00:18:09.855Z,1.40
2023-01-22T00:21:12.991Z,1.40
2023-01-22T00:24:14.858Z,1.30
2023-01-22T00:27:16.615Z,1.40
2023-01-22T00:30:18.742Z,1.40
2023-01-22T00:33:20.588Z,1.40
2023-01-22T00:36:22.915Z,1.30
2023-01-22T00:39:24.754Z,1.30
2023-01-22T00:42:26.779Z,1.30
2023-01-22T00:45:28.739Z,1.30
2023-01-22T00:48:31.042Z,1.30
2023-01-22T00:51:33.582Z,1.30
2023-01-22T00:54:35.351Z,1.30
2023-01-22T00:57:37.222Z,1.30
2023-01-22T01:00:39.222Z,1.30
2023-01-22T01:03:41.310Z,1.40
2023-01-22T01:06:43.126Z,1.30
2023-01-22T01:09:47.820Z,1.30
2023-01-22T01:12:49.591Z,1.40
2023-01-22T01:16:04.606Z,1.40
2023-01-22T01:19:10.011Z,1.40
2023-01-22T01:22:11.727Z,1.30
2023-01-22T01:25:14.316Z,1.40
2023-01-22T01:28:17.505Z,1.30
2023-01-22T01:31:21.388Z,1.30
2023-01-22T01:34:23.833Z,1.30
2023-01-22T01:37:25.535Z,1.40
2023-01-22T01:40:27.322Z,1.40
2023-01-22T01:43:30.535Z,1.40
2023-01-22T01:46:35.782Z,1.50
2023-01-22T01:49:44.937Z,1.40
2023-01-22T01:52:46.942Z,1.40
2023-01-22T01:55:49.551Z,1.40
2023-01-22T01:58:56.624Z,1.50
2023-01-22T02:01:58.377Z,1.50
2023-01-22T02:05:00.174Z,1.30
2023-01-22T02:08:02.420Z,1.40
2023-01-22T02:11:05.270Z,1.40
2023-01-22T02:14:17.985Z,1.40
2023-01-22T02:17:21.998Z,1.30
2023-01-22T02:20:26.086Z,1.30
2023-01-22T02:23:31.280Z,1.30
2023-01-22T02:26:33.545Z,1.40
2023-01-22T02:29:35.384Z,1.40
2023-01-22T02:32:37.150Z,1.40
2023-01-22T02:35:39.115Z,1.40
2023-01-22T02:38:40.928Z,1.40
2023-01-22T02:41:42.673Z,1.40
2023-01-22T02:44:45.992Z,1.30
2023-01-22T02:47:48.304Z,1.40
2023-01-22T02:50:50.050Z,1.40
2023-01-22T02:53:52.284Z,1.40
2023-01-22T02:56:54.218Z,1.40
2023-01-22T02:59:55.979Z,1.30
2023-01-22T03:02:58.105Z,1.40
2023-01-22T03:05:59.820Z,1.40
2023-01-22T03:09:01.575Z,1.30
2023-01-22T03:12:07.611Z,1.40
2023-01-22T03:15:30.398Z,1.40
2023-01-22T03:18:51.329Z,1.40
2023-01-22T03:21:53.904Z,1.30
2023-01-22T03:24:58.526Z,1.40
2023-01-22T03:28:08.653Z,1.30
2023-01-22T03:31:12.995Z,1.30
2023-01-22T03:34:16.670Z,1.40
2023-01-22T03:37:19.202Z,1.40
2023-01-22T03:40:24.780Z,1.30
2023-01-22T03:43:28.537Z,1.40
2023-01-22T03:46:31.752Z,1.30
2023-01-22T03:49:33.557Z,1.40
2023-01-22T03:52:35.330Z,1.30
2023-01-22T03:55:37.978Z,1.30
2023-01-22T03:58:40.529Z,2.50
2023-01-22T04:01:42.558Z,1.40
2023-01-22T04:04:44.623Z,1.40
2023-01-22T04:07:49.198Z,1.40
2023-01-22T04:10:52.104Z,1.30
2023-01-22T04:13:55.684Z,1.30
2023-01-22T04:16:57.944Z,1.40
2023-01-22T04:20:18.685Z,1.30
2023-01-22T04:23:53.011Z,1.30
2023-01-22T04:26:55.037Z,1.20
2023-01-22T04:29:56.859Z,1.20
2023-01-22T04:32:59.571Z,1.30
2023-01-22T04:36:06.825Z,1.20
2023-01-22T04:39:08.595Z,1.20
2023-01-22T04:42:11.323Z,1.20
2023-01-22T04:45:13.316Z,1.10
2023-01-22T04:48:16.093Z,1.10
2023-01-22T04:51:19.106Z,1.20
2023-01-22T04:54:20.976Z,1.10
2023-01-22T04:57:23.026Z,1.20
2023-01-22T05:00:27.391Z,1.20
2023-01-22T05:03:29.458Z,1.20
2023-01-22T05:06:32.020Z,1.20
2023-01-22T05:09:34.723Z,1.20
2023-01-22T05:12:36.774Z,1.10
2023-01-22T05:15:38.669Z,1.10
2023-01-22T05:18:44.608Z,1.20
2023-01-22T05:21:46.814Z,1.10
2023-01-22T05:24:51.787Z,1.10
2023-01-22T05:27:54.219Z,1.10
2023-01-22T05:31:15.093Z,1.10
2023-01-22T05:34:29.448Z,1.00
2023-01-22T05:37:32.512Z,1.10
2023-01-22T05:40:35.186Z,1.10
2023-01-22T05:43:38.394Z,1.10
2023-01-22T05:46:42.969Z,1.10
2023-01-22T05:49:53.718Z,1.10
2023-01-22T05:52:56.341Z,1.10
2023-01-22T05:56:05.918Z,1.10
2023-01-22T05:59:12.921Z,1.10
2023-01-22T06:02:15.875Z,1.00
2023-01-22T06:05:19.561Z,1.10
2023-01-22T06:08:28.531Z,1.10
2023-01-22T06:11:30.336Z,1.20
2023-01-22T06:14:32.560Z,1.10
2023-01-22T06:17:35.879Z,1.10
2023-01-22T06:20:37.726Z,1.10
2023-01-22T06:23:42.338Z,1.20
2023-01-22T06:26:44.355Z,1.10
2023-01-22T06:29:48.782Z,1.10
2023-01-22T06:32:54.545Z,1.00
2023-01-22T06:35:56.682Z,1.10
2023-01-22T06:38:58.887Z,1.00
2023-01-22T06:42:12.773Z,1.00
2023-01-22T06:45:15.384Z,1.00
2023-01-22T06:48:21.999Z,1.00
2023-01-22T06:51:23.837Z,1.00
2023-01-22T06:54:25.758Z,1.00
2023-01-22T06:57:28.627Z,1.00
2023-01-22T07:00:33.064Z,1.10
2023-01-22T07:03:34.836Z,1.00
2023-01-22T07:06:36.596Z,1.00
2023-01-22T07:09:38.318Z,1.00
2023-01-22T07:12:40.475Z,1.10
2023-01-22T07:15:42.725Z,1.00
2023-01-22T07:18:44.437Z,1.10
2023-01-22T07:21:46.123Z,1.00
2023-01-22T07:24:47.841Z,1.10
2023-01-22T07:27:49.524Z,1.20
2023-01-22T07:30:51.271Z,1.30
2023-01-22T07:33:53.000Z,1.10
2023-01-22T07:36:54.707Z,1.20
2023-01-22T07:39:56.402Z,1.20
2023-01-22T07:42:58.197Z,1.20
2023-01-22T07:46:04.413Z,1.20
2023-01-22T07:49:06.759Z,1.30
2023-01-22T07:52:08.482Z,1.30
2023-01-22T07:55:10.209Z,1.20
2023-01-22T07:58:12.138Z,1.30
2023-01-22T08:01:14.044Z,1.20
2023-01-22T08:04:15.881Z,1.20
2023-01-22T08:07:18.210Z,1.20
2023-01-22T08:10:20.423Z,1.70
2023-01-22T08:13:22.338Z,1.20
2023-01-22T08:16:24.174Z,1.20
2023-01-22T08:19:26.078Z,1.20
2023-01-22T08:22:27.785Z,1.30
2023-01-22T08:25:29.936Z,1.30
2023-01-22T08:28:32.022Z,1.40
2023-01-22T08:31:34.367Z,1.40
2023-01-22T08:34:36.129Z,1.30
2023-01-22T08:37:37.877Z,1.30
2023-01-22T08:40:39.535Z,1.30
2023-01-22T08:43:41.428Z,1.30
2023-01-22T08:46:43.274Z,1.40
2023-01-22T08:49:45.035Z,1.30
2023-01-22T08:52:46.782Z,1.30
2023-01-22T08:55:50.007Z,1.40
2023-01-22T08:58:52.604Z,1.40
2023-01-22T09:01:54.391Z,1.50
2023-01-22T09:04:56.126Z,1.50
2023-01-22T09:07:57.836Z,1.40
2023-01-22T09:10:59.551Z,1.40
2023-01-22T09:14:01.267Z,1.40
2023-01-22T09:17:02.982Z,1.40
2023-01-22T09:20:05.109Z,1.40
2023-01-22T09:23:07.354Z,1.50
2023-01-22T09:26:09.577Z,1.50
2023-01-22T09:29:11.364Z,1.50
2023-01-22T09:32:13.142Z,1.50
2023-01-22T09:35:16.548Z,1.40
2023-01-22T09:38:18.749Z,1.40
2023-01-22T09:41:35.273Z,1.30
2023-01-22T09:44:40.658Z,1.30
2023-01-22T09:47:52.743Z,1.60
2023-01-22T09:50:54.625Z,1.40
2023-01-22T09:53:59.705Z,1.50
2023-01-22T09:57:04.734Z,1.60
2023-01-22T10:00:37.740Z,1.60
2023-01-22T10:03:43.428Z,1.50
2023-01-22T10:06:47.605Z,1.50
2023-01-22T10:09:55.591Z,1.50
2023-01-22T10:13:18.011Z,1.60
2023-01-22T10:16:19.818Z,1.60
2023-01-22T10:19:29.235Z,1.60
2023-01-22T10:22:30.970Z,1.60
2023-01-22T10:25:33.768Z,1.70
2023-01-22T10:28:35.799Z,1.60
2023-01-22T10:31:41.107Z,1.60
2023-01-22T10:34:43.010Z,1.70
2023-01-22T10:37:47.152Z,1.70
2023-01-22T10:40:54.731Z,1.70
2023-01-22T10:43:56.441Z,1.80
2023-01-22T10:47:09.670Z,1.90
2023-01-22T10:50:16.551Z,1.90
2023-01-22T10:53:24.993Z,1.80
2023-01-22T10:56:32.653Z,2.00
2023-01-22T10:59:34.831Z,2.00
2023-01-22T11:02:40.801Z,2.00
2023-01-22T11:05:46.370Z,2.00
2023-01-22T11:09:21.028Z,2.00
2023-01-22T11:12:26.894Z,2.10
2023-01-22T11:15:55.492Z,2.10
2023-01-22T11:19:12.883Z,2.10
2023-01-22T11:22:28.796Z,2.10
2023-01-22T11:25:42.995Z,2.10
2023-01-22T11:29:13.396Z,2.00
2023-01-22T11:32:39.124Z,1.90
2023-01-22T11:36:11.841Z,2.10
2023-01-22T11:39:39.887Z,2.00
2023-01-22T11:42:50.692Z,2.00
2023-01-22T11:46:14.336Z,2.00
2023-01-22T11:50:00.134Z,2.00
2023-01-22T11:53:11.395Z,2.00
2023-01-22T11:56:25.370Z,2.00
2023-01-22T11:59:52.003Z,2.00
2023-01-22T12:03:08.792Z,2.10
2023-01-22T12:06:19.423Z,2.10
2023-01-22T12:09:27.260Z,2.20
2023-01-22T12:12:48.995Z,2.00
2023-01-22T12:15:57.293Z,2.10
2023-01-22T12:19:07.912Z,2.10
2023-01-22T12:22:25.347Z,2.20
2023-01-22T12:26:01.893Z,2.20
2023-01-22T12:29:41.411Z,2.20
2023-01-22T12:32:48.520Z,2.20
2023-01-22T12:35:52.897Z,2.20
2023-01-22T12:38:59.349Z,2.30
2023-01-22T12:42:13.388Z,2.30
2023-01-22T12:45:19.918Z,2.40
2023-01-22T12:48:24.468Z,2.50
2023-01-22T12:51:38.951Z,2.40
2023-01-22T12:54:40.731Z,2.40
2023-01-22T12:57:42.715Z,2.40
2023-01-22T13:00:44.502Z,2.30
2023-01-22T13:03:58.077Z,2.50
2023-01-22T13:07:24.116Z,2.40
2023-01-22T13:10:29.898Z,2.40
2023-01-22T13:13:37.516Z,2.40
2023-01-22T13:16:39.573Z,2.40
2023-01-22T13:19:44.731Z,2.50
2023-01-22T13:22:46.968Z,2.40
2023-01-22T13:25:54.755Z,2.50
2023-01-22T13:29:06.241Z,2.50
2023-01-22T13:32:16.900Z,2.40
2023-01-22T13:35:20.016Z,2.50
2023-01-22T13:38:29.157Z,2.50
2023-01-22T13:41:38.453Z,2.50
2023-01-22T13:44:42.978Z,2.50
2023-01-22T13:47:45.181Z,2.50
2023-01-22T13:50:54.162Z,2.60
2023-01-22T13:53:56.062Z,2.50
2023-01-22T13:56:57.855Z,2.60
2023-01-22T14:00:01.742Z,2.50
2023-01-22T14:03:18.257Z,2.60
2023-01-22T14:06:19.954Z,2.50
2023-01-22T14:09:33.429Z,2.50
2023-01-22T14:12:35.147Z,2.40
2023-01-22T14:15:38.401Z,2.50
2023-01-22T14:18:41.106Z,2.50
2023-01-22T14:21:42.876Z,2.50
2023-01-22T14:24:44.627Z,2.50
2023-01-22T14:27:49.745Z,2.60
2023-01-22T14:30:51.956Z,2.50
2023-01-22T14:33:53.707Z,2.50
2023-01-22T14:36:55.540Z,2.50
2023-01-22T14:39:57.296Z,2.60
2023-01-22T14:43:02.985Z,2.60
2023-01-22T14:46:08.133Z,2.60
2023-01-22T14:49:09.936Z,2.50
2023-01-22T14:52:11.608Z,2.50
2023-01-22T14:55:13.839Z,2.50
2023-01-22T14:58:16.223Z,2.50
2023-01-22T15:01:20.713Z,2.50
2023-01-22T15:04:22.454Z,2.50
2023-01-22T15:07:24.209Z,2.40
2023-01-22T15:10:25.939Z,2.50
2023-01-22T15:13:27.669Z,2.50
2023-01-22T15:16:29.414Z,2.60
2023-01-22T15:19:40.718Z,2.50
2023-01-22T15:22:43.056Z,2.50
2023-01-22T15:25:44.778Z,2.40
2023-01-22T15:28:46.493Z,2.50
2023-01-22T15:31:48.277Z,2.40
2023-01-22T15:34:50.010Z,2.50
2023-01-22T15:37:51.719Z,2.40
2023-01-22T15:41:23.141Z,2.40
2023-01-22T15:44:24.892Z,2.40
2023-01-22T15:47:26.605Z,2.40
2023-01-22T15:50:28.396Z,2.40
2023-01-22T15:53:30.115Z,2.50
2023-01-22T15:56:34.169Z,2.50
2023-01-22T15:59:38.749Z,2.50
2023-01-22T16:02:41.122Z,2.50
2023-01-22T16:05:42.821Z,2.50
2023-01-22T16:08:46.129Z,2.00
2023-01-22T16:11:47.877Z,2.40
2023-01-22T16:14:49.659Z,2.40
2023-01-22T16:17:51.443Z,2.40
2023-01-22T16:20:53.626Z,2.30
2023-01-22T16:23:58.633Z,2.40
2023-01-22T16:27:00.416Z,2.40
2023-01-22T16:30:02.443Z,2.50
2023-01-22T16:33:18.003Z,2.50
2023-01-22T16:36:21.952Z,2.50
2023-01-22T16:39:26.596Z,2.50
2023-01-22T16:42:28.309Z,2.50
2023-01-22T16:45:30.157Z,2.50
2023-01-22T16:48:31.910Z,2.60
2023-01-22T16:51:39.606Z,2.60
2023-01-22T16:54:42.599Z,2.50
2023-01-22T16:57:44.253Z,2.40
2023-01-22T17:00:47.308Z,2.50
2023-01-22T17:03:49.044Z,2.50
2023-01-22T17:06:53.188Z,2.50
2023-01-22T17:09:55.036Z,2.50
2023-01-22T17:12:57.311Z,2.30
2023-01-22T17:15:59.006Z,2.60
2023-01-22T17:19:00.975Z,2.60
2023-01-22T17:22:03.249Z,2.50
2023-01-22T17:25:05.563Z,2.50
2023-01-22T17:28:08.208Z,2.60
2023-01-22T17:31:15.584Z,2.60
2023-01-22T17:34:18.323Z,2.60
2023-01-22T17:37:20.122Z,2.60
2023-01-22T17:40:22.110Z,2.50
2023-01-22T17:43:24.457Z,2.60
2023-01-22T17:46:29.074Z,2.60
2023-01-22T17:49:32.457Z,2.60
2023-01-22T17:52:34.173Z,3.00
2023-01-22T17:55:37.867Z,2.60
2023-01-22T17:58:44.405Z,2.60
2023-01-22T18:01:46.768Z,2.50
2023-01-22T18:04:48.490Z,2.60
2023-01-22T18:07:50.168Z,2.60
2023-01-22T18:10:52.797Z,2.60
2023-01-22T18:14:00.131Z,2.60
2023-01-22T18:17:02.209Z,2.70
2023-01-22T18:20:06.453Z,2.70
2023-01-22T18:23:08.143Z,2.70
2023-01-22T18:26:10.517Z,2.70
2023-01-22T18:29:12.379Z,2.60
2023-01-22T18:32:14.181Z,2.70
2023-01-22T18:35:16.009Z,2.70
2023-01-22T18:38:25.030Z,2.70
2023-01-22T18:41:27.329Z,2.70
2023-01-22T18:44:29.175Z,2.70
2023-01-22T18:47:33.856Z,2.70
2023-01-22T18:50:35.574Z,2.70
2023-01-22T18:53:37.601Z,2.70
2023-01-22T18:56:39.402Z,2.70
2023-01-22T18:59:41.198Z,2.70
2023-01-22T19:02:43.161Z,2.70
2023-01-22T19:05:44.884Z,2.60
2023-01-22T19:08:47.796Z,2.60
2023-01-22T19:11:52.146Z,2.60
2023-01-22T19:14:54.056Z,2.70
2023-01-22T19:17:55.769Z,2.80
2023-01-22T19:21:03.795Z,2.80
2023-01-22T19:24:06.309Z,2.70
2023-01-22T19:27:08.371Z,2.70
2023-01-22T19:30:10.846Z,2.70
2023-01-22T19:33:12.523Z,2.70
2023-01-22T19:36:14.608Z,2.70
2023-01-22T19:39:17.092Z,2.70
2023-01-22T19:42:18.835Z,2.70
2023-01-22T19:45:20.849Z,2.70
2023-01-22T19:48:25.375Z,2.70
2023-01-22T19:51:27.391Z,2.70
2023-01-22T19:54:29.195Z,2.70
2023-01-22T19:57:33.111Z,2.60
2023-01-22T20:00:34.812Z,2.70
2023-01-22T20:03:36.513Z,2.60
2023-01-22T20:06:39.262Z,2.70
2023-01-22T20:09:41.073Z,2.70
2023-01-22T20:12:43.299Z,2.70
2023-01-22T20:15:45.019Z,2.80
2023-01-22T20:18:48.094Z,2.70
2023-01-22T20:21:49.838Z,2.80
2023-01-22T20:24:51.608Z,2.80
2023-01-22T20:27:53.326Z,2.80
2023-01-22T20:30:59.938Z,2.70
2023-01-22T20:34:03.068Z,2.70
2023-01-22T20:37:04.839Z,2.70
2023-01-22T20:40:07.400Z,2.60
2023-01-22T20:43:09.243Z,2.80
2023-01-22T20:46:17.292Z,2.80
2023-01-22T20:49:19.036Z,2.80
2023-01-22T20:52:20.801Z,2.70
2023-01-22T20:55:24.633Z,2.80
2023-01-22T20:58:27.422Z,2.70
2023-01-22T21:01:29.835Z,2.80
2023-01-22T21:04:31.682Z,2.70
2023-01-22T21:07:33.659Z,2.70
2023-01-22T21:10:35.353Z,2.70
2023-01-22T21:13:37.286Z,2.70
2023-01-22T21:16:40.483Z,2.70
2023-01-22T21:19:44.301Z,2.70
2023-01-22T21:22:46.142Z,2.70
2023-01-22T21:25:47.896Z,2.80
2023-01-22T21:29:02.064Z,2.70
2023-01-22T21:32:04.026Z,2.80
2023-01-22T21:35:06.536Z,2.70
2023-01-22T21:38:08.245Z,2.80
2023-01-22T21:41:12.577Z,2.70
2023-01-22T21:44:36.340Z,2.80
2023-01-22T21:47:38.063Z,2.80
2023-01-22T21:50:43.713Z,2.80
2023-01-22T21:53:45.449Z,2.80
2023-01-22T21:56:47.742Z,2.80
2023-01-22T21:59:49.459Z,2.70
2023-01-22T22:02:52.666Z,2.80
2023-01-22T22:06:01.937Z,2.80
2023-01-22T22:09:07.194Z,2.80
2023-01-22T22:12:10.081Z,2.90
2023-01-22T22:15:12.301Z,2.90
2023-01-22T22:18:14.021Z,2.90
2023-01-22T22:21:16.093Z,2.90
2023-01-22T22:24:18.787Z,2.90
2023-01-22T22:27:20.596Z,2.90
2023-01-22T22:30:22.471Z,2.90
2023-01-22T22:33:24.233Z,2.90
2023-01-22T22:36:27.772Z,2.90
2023-01-22T22:39:29.471Z,2.90
2023-01-22T22:42:31.187Z,2.90
2023-01-22T22:45:37.156Z,2.80
2023-01-22T22:48:38.890Z,2.90
2023-01-22T22:51:42.514Z,2.90
2023-01-22T22:54:44.222Z,3.00
2023-01-22T22:57:48.588Z,2.90
2023-01-22T23:00:50.376Z,2.80
2023-01-22T23:03:53.516Z,2.80
2023-01-22T23:06:55.428Z,2.90
2023-01-22T23:09:57.309Z,2.90
2023-01-22T23:13:01.594Z,2.80
2023-01-22T23:16:10.220Z,2.80
2023-01-22T23:19:18.062Z,2.90
2023-01-22T23:22:19.767Z,2.90
2023-01-22T23:25:21.631Z,2.90
2023-01-22T23:28:23.369Z,2.90
2023-01-22T23:31:27.063Z,2.90
2023-01-22T23:34:28.920Z,2.90
2023-01-22T23:37:30.679Z,2.90
2023-01-22T23:40:33.704Z,3.00
2023-01-22T23:43:36.003Z,2.90
2023-01-22T23:46:38.701Z,3.00
2023-01-22T23:49:40.567Z,3.00
2023-01-22T23:52:43.942Z,2.80
2023-01-22T23:55:45.738Z,2.80
2023-01-22T23:58:47.504Z,2.90
